Enter the Airport ICAO Code

Search by Airport or City

Current Weather

ZGGG | Guangzhou Baiyun International Airport

Guangzhou, Guangdong, China

Last Update 18 Minutes Ago

Sky with Few Clouds

Temperature of 35 ºC

Light Winds from Variable Directions

Temperature

35 ºC

Dew Point Temperature

21 ºC

Relative Humidity

44.38 %

Wind Direction

Variable

Wind Velocity

4 km/h (1 kt)

Gusts

None

Visibility

Greater than 10 Kilometers

Sea Level Pressure

1005 hPa (Hectopascals)

Layers of Clouds

5% to 30% of Sky Covered from 1829 mts (6000 ft) Above Ground Level.

METAR ZGGG 131030Z VRB01MPS 9999 FEW060 35/21 Q1005 NOSIG

Weather Forecast

ZGGG | Guangzhou Baiyun International Airport

Guangzhou, Guangdong, China

Forecast valid for the next 25 Hours

In 1 hour it is expected the begining of:

Partly Cloudy Sky

Light to Moderate Winds from South

Maximum Temperature

37 ºC in 20 Hours

Minimum Temperature

28 ºC in 11 Hours

TAF ZGGG 130902Z 1312/1412 18004MPS 8000 SCT040 TX37/1407Z TN28/1322Z